createdAt,value
2018-08-16T00:00:15.345Z,19.3
2018-08-16T00:03:15.176Z,19.4
2018-08-16T00:06:15.431Z,19.5
2018-08-16T00:09:15.581Z,19.4
2018-08-16T00:12:15.903Z,19.3
2018-08-16T00:15:15.197Z,19.4
2018-08-16T00:18:15.514Z,19.3
2018-08-16T00:21:15.627Z,19.2
2018-08-16T00:24:14.952Z,19.0
2018-08-16T00:27:14.991Z,19.0
2018-08-16T00:30:15.251Z,18.9
2018-08-16T00:33:15.448Z,18.8
2018-08-16T00:36:15.572Z,18.7
2018-08-16T00:39:15.635Z,18.8
2018-08-16T00:42:15.979Z,18.8
2018-08-16T00:45:15.141Z,18.8
2018-08-16T00:48:15.367Z,18.8
2018-08-16T00:51:15.585Z,18.7
2018-08-16T00:54:15.129Z,18.7
2018-08-16T00:57:15.243Z,18.6
2018-08-16T01:00:15.550Z,18.5
2018-08-16T01:03:15.618Z,18.4
2018-08-16T01:06:15.710Z,18.5
2018-08-16T01:09:14.987Z,18.6
2018-08-16T01:12:15.305Z,18.6
2018-08-16T01:15:15.606Z,18.7
2018-08-16T01:18:15.801Z,18.6
2018-08-16T01:21:14.994Z,18.6
2018-08-16T01:24:15.191Z,18.5
2018-08-16T01:27:15.393Z,18.4
2018-08-16T01:30:15.607Z,18.4
2018-08-16T01:33:15.846Z,18.4
2018-08-16T01:36:15.106Z,18.5
2018-08-16T01:39:15.303Z,18.6
2018-08-16T01:42:15.543Z,18.6
2018-08-16T01:45:15.684Z,18.7
2018-08-16T01:48:15.835Z,18.8
2018-08-16T01:51:14.948Z,18.8
2018-08-16T01:54:15.286Z,18.9
2018-08-16T01:57:14.898Z,18.9
2018-08-16T02:00:15.006Z,18.9
2018-08-16T02:03:15.203Z,18.6
2018-08-16T02:06:15.313Z,18.4
2018-08-16T02:09:15.587Z,18.3
2018-08-16T02:12:15.813Z,18.2
2018-08-16T02:15:14.874Z,18.2
2018-08-16T02:18:15.308Z,18.2
2018-08-16T02:21:15.493Z,18.0
2018-08-16T02:24:15.841Z,18.0
2018-08-16T02:27:15.017Z,18.0
2018-08-16T02:30:20.024Z,18.0
2018-08-16T02:33:15.166Z,18.0
2018-08-16T02:36:15.465Z,17.9
2018-08-16T02:39:14.901Z,17.9
2018-08-16T02:42:15.004Z,17.9
2018-08-16T02:45:15.182Z,17.9
2018-08-16T02:48:15.469Z,17.9
2018-08-16T02:51:15.575Z,17.9
2018-08-16T02:54:15.918Z,17.8
2018-08-16T02:57:14.944Z,17.8
2018-08-16T03:00:15.151Z,17.9
2018-08-16T03:03:15.504Z,18.0
2018-08-16T03:06:15.722Z,18.0
2018-08-16T03:09:14.867Z,18.1
2018-08-16T03:12:14.979Z,18.0
2018-08-16T03:15:15.224Z,18.0
2018-08-16T03:18:15.543Z,18.0
2018-08-16T03:21:15.633Z,18.1
2018-08-16T03:24:15.885Z,18.0
2018-08-16T03:27:15.108Z,18.1
2018-08-16T03:30:15.368Z,18.0
2018-08-16T03:33:15.595Z,17.8
2018-08-16T03:36:15.791Z,17.7
2018-08-16T03:39:15.061Z,17.8
2018-08-16T03:42:15.276Z,18.0
2018-08-16T03:45:15.454Z,18.1
2018-08-16T03:48:15.816Z,18.1
2018-08-16T03:51:15.046Z,18.0
2018-08-16T03:54:15.218Z,17.9
2018-08-16T03:57:15.417Z,18.0
2018-08-16T04:00:15.685Z,18.0
2018-08-16T04:03:14.866Z,18.1
2018-08-16T04:06:15.096Z,18.1
2018-08-16T04:09:15.219Z,17.9
2018-08-16T04:12:15.419Z,17.8
2018-08-16T04:15:15.511Z,17.7
2018-08-16T04:18:15.257Z,17.7
2018-08-16T04:21:15.391Z,17.6
2018-08-16T04:24:15.566Z,17.6
2018-08-16T04:27:20.237Z,17.6
2018-08-16T04:30:15.224Z,17.5
2018-08-16T04:33:15.357Z,17.4
2018-08-16T04:36:15.475Z,17.3
2018-08-16T04:39:15.977Z,17.3
2018-08-16T04:42:15.185Z,17.3
2018-08-16T04:45:15.307Z,17.2
2018-08-16T04:48:15.524Z,17.2
2018-08-16T04:51:15.884Z,17.3
2018-08-16T04:54:15.093Z,17.4
2018-08-16T04:57:15.409Z,17.5
2018-08-16T05:00:15.921Z,17.7
2018-08-16T05:03:15.777Z,17.9
2018-08-16T05:06:15.186Z,18.1
2018-08-16T05:09:15.390Z,18.1
2018-08-16T05:12:15.713Z,18.3
2018-08-16T05:15:15.984Z,18.5
2018-08-16T05:18:15.292Z,18.7
2018-08-16T05:21:15.512Z,18.8
2018-08-16T05:24:18.551Z,19.1
2018-08-16T05:27:15.217Z,19.3
2018-08-16T05:30:15.610Z,19.5
2018-08-16T05:33:15.814Z,19.8
2018-08-16T05:36:15.092Z,20.0
2018-08-16T05:39:15.648Z,20.0
2018-08-16T05:42:15.003Z,19.9
2018-08-16T05:45:15.255Z,19.9
2018-08-16T05:48:15.470Z,20.2
2018-08-16T05:51:15.742Z,20.3
2018-08-16T05:54:15.232Z,20.4
2018-08-16T05:57:15.486Z,20.6
2018-08-16T06:00:15.761Z,20.6
2018-08-16T06:03:15.036Z,20.8
2018-08-16T06:06:15.236Z,21.0
2018-08-16T06:09:15.927Z,21.3
2018-08-16T06:12:15.078Z,21.6
2018-08-16T06:15:15.389Z,21.8
2018-08-16T06:18:15.652Z,22.0
2018-08-16T06:21:16.015Z,22.1
2018-08-16T06:24:15.122Z,22.3
2018-08-16T06:27:15.333Z,22.6
2018-08-16T06:30:15.567Z,22.6
2018-08-16T06:33:15.840Z,22.5
2018-08-16T06:36:14.894Z,22.5
2018-08-16T06:39:15.154Z,22.4
2018-08-16T06:42:15.472Z,22.5
2018-08-16T06:45:15.658Z,22.7
2018-08-16T06:48:15.715Z,23.1
2018-08-16T06:51:15.022Z,23.5
2018-08-16T06:54:15.374Z,23.3
2018-08-16T06:57:15.791Z,23.6
2018-08-16T07:00:15.035Z,23.7
2018-08-16T07:03:15.294Z,24.0
2018-08-16T07:06:15.540Z,23.7
2018-08-16T07:09:15.827Z,24.0
2018-08-16T07:12:15.133Z,24.4
2018-08-16T07:15:15.716Z,24.8
2018-08-16T07:18:15.179Z,25.1
2018-08-16T07:21:15.417Z,25.4
2018-08-16T07:24:15.597Z,25.6
2018-08-16T07:27:15.883Z,25.6
2018-08-16T07:30:15.617Z,25.6
2018-08-16T07:33:16.060Z,25.7
2018-08-16T07:36:15.406Z,26.0
2018-08-16T07:39:16.135Z,26.6
2018-08-16T07:42:15.838Z,26.4
2018-08-16T07:45:15.341Z,27.2
2018-08-16T07:48:16.088Z,27.7
2018-08-16T07:51:15.917Z,27.8
2018-08-16T07:54:16.058Z,28.3
2018-08-16T07:57:15.714Z,28.3
2018-08-16T08:00:16.362Z,28.0
2018-08-16T08:03:15.997Z,27.5
2018-08-16T08:06:15.724Z,28.5
2018-08-16T08:09:15.444Z,29.5
2018-08-16T08:12:16.076Z,29.8
2018-08-16T08:15:15.711Z,30.5
2018-08-16T08:18:15.956Z,30.9
2018-08-16T08:21:15.980Z,30.4
2018-08-16T08:24:15.740Z,31.0
2018-08-16T08:27:16.001Z,30.9
2018-08-16T08:30:20.710Z,30.8
2018-08-16T08:33:16.115Z,30.5
2018-08-16T08:36:15.889Z,31.6
2018-08-16T08:39:16.063Z,31.5
2018-08-16T08:42:15.744Z,32.0
2018-08-16T08:45:15.623Z,33.3
2018-08-16T08:48:15.414Z,34.1
2018-08-16T08:51:16.074Z,34.6
2018-08-16T08:54:15.916Z,33.2
2018-08-16T08:57:15.677Z,33.5
2018-08-16T09:00:15.912Z,34.5
2018-08-16T09:03:15.494Z,35.5
2018-08-16T09:06:16.337Z,36.5
2018-08-16T09:09:15.441Z,37.1
2018-08-16T09:12:21.117Z,37.9
2018-08-16T09:15:16.216Z,38.1
2018-08-16T09:18:15.518Z,38.3
2018-08-16T09:21:16.151Z,38.5
2018-08-16T09:24:16.184Z,38.7
2018-08-16T09:27:16.130Z,39.1
2018-08-16T09:30:15.872Z,39.5
2018-08-16T09:33:15.985Z,39.6
2018-08-16T09:36:16.196Z,39.4
2018-08-16T09:39:16.172Z,39.6
2018-08-16T09:42:15.912Z,39.3
2018-08-16T09:45:15.590Z,40.2
2018-08-16T09:48:16.170Z,39.1
2018-08-16T09:51:16.224Z,38.0
2018-08-16T09:54:16.072Z,38.9
2018-08-16T09:57:16.046Z,40.1
2018-08-16T10:00:15.671Z,40.5
2018-08-16T10:03:15.915Z,40.4
2018-08-16T10:06:15.539Z,40.4
2018-08-16T10:09:15.432Z,39.9
2018-08-16T10:12:16.444Z,40.1
2018-08-16T10:15:16.465Z,41.3
2018-08-16T10:18:16.728Z,41.8
2018-08-16T10:21:17.281Z,42.1
2018-08-16T10:24:16.887Z,42.6
2018-08-16T10:27:16.637Z,42.8
2018-08-16T10:30:16.541Z,43.0
2018-08-16T10:33:17.373Z,43.4
2018-08-16T10:36:17.582Z,43.3
2018-08-16T10:39:17.321Z,43.3
2018-08-16T10:42:17.785Z,42.3
2018-08-16T10:45:17.191Z,41.2
2018-08-16T10:48:17.647Z,41.3
2018-08-16T10:51:17.365Z,39.7
2018-08-16T10:54:17.854Z,40.0
2018-08-16T10:57:17.345Z,41.5
2018-08-16T11:00:17.948Z,40.4
2018-08-16T11:03:22.454Z,40.7
2018-08-16T11:06:18.078Z,41.3
2018-08-16T11:09:18.043Z,41.7
2018-08-16T11:12:18.041Z,41.8
2018-08-16T11:15:18.071Z,42.5
2018-08-16T11:18:18.431Z,43.1
2018-08-16T11:21:17.339Z,41.1
2018-08-16T11:24:18.296Z,41.7
2018-08-16T11:27:18.174Z,42.5
2018-08-16T11:30:17.517Z,43.5
2018-08-16T11:33:16.821Z,43.2
2018-08-16T11:36:17.182Z,43.4
2018-08-16T11:39:17.434Z,42.0
2018-08-16T11:42:21.892Z,41.4
2018-08-16T11:45:16.554Z,40.4
2018-08-16T11:48:16.096Z,39.5
2018-08-16T11:51:16.371Z,38.5
2018-08-16T11:54:16.630Z,38.2
2018-08-16T11:57:16.300Z,37.5
2018-08-16T12:00:15.393Z,37.1
2018-08-16T12:03:16.170Z,37.0
2018-08-16T12:06:15.898Z,36.9
2018-08-16T12:09:16.557Z,36.8
2018-08-16T12:12:15.432Z,36.1
2018-08-16T12:15:15.527Z,36.4
2018-08-16T12:18:15.273Z,36.2
2018-08-16T12:21:15.863Z,36.1
2018-08-16T12:24:15.808Z,35.9
2018-08-16T12:27:15.692Z,35.9
2018-08-16T12:30:15.334Z,35.6
2018-08-16T12:33:15.924Z,35.4
2018-08-16T12:36:15.477Z,35.3
2018-08-16T12:39:21.333Z,35.0
2018-08-16T12:42:15.980Z,34.2
2018-08-16T12:45:15.666Z,34.3
2018-08-16T12:48:15.363Z,34.4
2018-08-16T12:51:16.115Z,34.6
2018-08-16T12:54:15.751Z,34.2
2018-08-16T12:57:20.735Z,33.5
2018-08-16T13:00:15.662Z,33.6
2018-08-16T13:03:15.901Z,33.7
2018-08-16T13:06:15.406Z,33.5
2018-08-16T13:09:16.037Z,33.4
2018-08-16T13:12:16.125Z,33.3
2018-08-16T13:15:15.703Z,33.2
2018-08-16T13:18:20.456Z,33.1
2018-08-16T13:21:16.238Z,32.8
2018-08-16T13:24:15.853Z,32.5
2018-08-16T13:27:15.917Z,32.7
2018-08-16T13:30:15.537Z,32.8
2018-08-16T13:33:15.659Z,32.8
2018-08-16T13:36:15.398Z,32.8
2018-08-16T13:39:16.016Z,32.8
2018-08-16T13:42:15.772Z,32.8
2018-08-16T13:45:15.357Z,32.8
2018-08-16T13:48:16.176Z,32.8
2018-08-16T13:51:15.975Z,32.8
2018-08-16T13:54:15.860Z,32.9
2018-08-16T13:57:15.734Z,32.9
2018-08-16T14:00:15.287Z,32.8
2018-08-16T14:03:16.195Z,32.7
2018-08-16T14:06:15.931Z,32.7
2018-08-16T14:09:15.635Z,32.9
2018-08-16T14:12:15.551Z,32.7
2018-08-16T14:15:16.261Z,33.0
2018-08-16T14:18:15.477Z,33.0
2018-08-16T14:21:16.168Z,33.0
2018-08-16T14:24:16.205Z,32.9
2018-08-16T14:27:15.964Z,32.9
2018-08-16T14:30:15.786Z,32.9
2018-08-16T14:33:15.538Z,32.8
2018-08-16T14:36:16.251Z,32.8
2018-08-16T14:39:16.347Z,32.7
2018-08-16T14:42:16.065Z,32.6
2018-08-16T14:45:15.915Z,32.7
2018-08-16T14:48:15.547Z,32.2
2018-08-16T14:51:16.281Z,31.8
2018-08-16T14:54:16.123Z,31.9
2018-08-16T14:57:15.863Z,32.0
2018-08-16T15:00:15.734Z,31.9
2018-08-16T15:03:16.287Z,32.1
2018-08-16T15:06:15.469Z,32.0
2018-08-16T15:09:16.264Z,32.0
2018-08-16T15:12:17.042Z,31.9
2018-08-16T15:15:15.738Z,31.7
2018-08-16T15:18:15.618Z,31.6
2018-08-16T15:21:16.302Z,31.6
2018-08-16T15:24:16.099Z,31.6
2018-08-16T15:27:16.021Z,31.5
2018-08-16T15:30:15.828Z,31.4
2018-08-16T15:33:15.440Z,31.4
2018-08-16T15:36:16.234Z,31.3
2018-08-16T15:39:15.987Z,31.0
2018-08-16T15:42:15.715Z,31.0
2018-08-16T15:45:15.398Z,30.8
2018-08-16T15:48:16.066Z,30.7
2018-08-16T15:51:15.745Z,30.6
2018-08-16T15:54:15.536Z,30.8
2018-08-16T15:57:16.173Z,30.9
2018-08-16T16:00:15.839Z,30.8
2018-08-16T16:03:15.503Z,30.8
2018-08-16T16:06:16.417Z,30.8
2018-08-16T16:09:15.937Z,30.7
2018-08-16T16:12:15.580Z,30.5
2018-08-16T16:15:21.350Z,30.6
2018-08-16T16:18:15.722Z,30.3
2018-08-16T16:21:15.651Z,30.3
2018-08-16T16:24:15.615Z,30.3
2018-08-16T16:27:15.739Z,30.3
2018-08-16T16:30:15.806Z,30.2
2018-08-16T16:33:15.655Z,30.1
2018-08-16T16:36:15.342Z,30.1
2018-08-16T16:39:16.138Z,30.1
2018-08-16T16:42:15.818Z,30.0
2018-08-16T16:45:15.501Z,30.0
2018-08-16T16:48:16.162Z,30.0
2018-08-16T16:51:16.388Z,29.9
2018-08-16T16:54:16.155Z,29.8
2018-08-16T16:57:15.827Z,29.7
2018-08-16T17:00:15.923Z,29.8
2018-08-16T17:03:15.602Z,29.8
2018-08-16T17:06:21.260Z,29.6
2018-08-16T17:09:16.131Z,29.6
2018-08-16T17:12:15.945Z,29.7
2018-08-16T17:15:15.615Z,29.5
2018-08-16T17:18:15.642Z,29.4
2018-08-16T17:21:15.793Z,29.4
2018-08-16T17:24:15.451Z,29.4
2018-08-16T17:27:16.202Z,29.5
2018-08-16T17:30:15.896Z,29.4
2018-08-16T17:33:15.490Z,29.4
2018-08-16T17:36:16.059Z,29.2
2018-08-16T17:39:15.754Z,29.1
2018-08-16T17:42:15.630Z,29.0
2018-08-16T17:45:16.239Z,29.0
2018-08-16T17:48:16.225Z,28.9
2018-08-16T17:51:16.245Z,28.8
2018-08-16T17:54:15.994Z,28.8
2018-08-16T17:57:15.701Z,28.7
2018-08-16T18:00:15.327Z,28.6
2018-08-16T18:03:16.002Z,28.6
2018-08-16T18:06:15.574Z,28.5
2018-08-16T18:09:16.249Z,28.4
2018-08-16T18:12:16.148Z,28.4
2018-08-16T18:15:15.800Z,28.4
2018-08-16T18:18:15.489Z,28.3
2018-08-16T18:21:16.036Z,28.2
2018-08-16T18:24:15.453Z,28.2
2018-08-16T18:27:16.040Z,28.1
2018-08-16T18:30:15.599Z,28.1
2018-08-16T18:33:16.192Z,28.0
2018-08-16T18:36:15.957Z,28.0
2018-08-16T18:39:15.399Z,27.9
2018-08-16T18:42:15.990Z,27.8
2018-08-16T18:45:15.472Z,27.7
2018-08-16T18:48:15.903Z,27.6
2018-08-16T18:51:15.187Z,27.6
2018-08-16T18:54:15.668Z,27.5
2018-08-16T18:57:16.123Z,27.5
2018-08-16T19:00:15.976Z,27.4
2018-08-16T19:03:15.280Z,27.4
2018-08-16T19:06:15.634Z,27.4
2018-08-16T19:09:16.068Z,27.3
2018-08-16T19:12:15.433Z,27.3
2018-08-16T19:15:15.858Z,27.2
2018-08-16T19:18:15.944Z,27.2
2018-08-16T19:21:15.214Z,27.1
2018-08-16T19:24:15.411Z,27.1
2018-08-16T19:27:15.629Z,27.0
2018-08-16T19:30:15.888Z,27.0
2018-08-16T19:33:15.589Z,26.9
2018-08-16T19:36:15.907Z,26.9
2018-08-16T19:39:15.588Z,26.8
2018-08-16T19:42:15.370Z,26.7
2018-08-16T19:45:15.735Z,26.7
2018-08-16T19:48:16.079Z,26.6
2018-08-16T19:51:15.364Z,26.4
2018-08-16T19:54:15.601Z,26.3
2018-08-16T19:57:14.938Z,26.3
2018-08-16T20:00:15.353Z,26.2
2018-08-16T20:03:15.623Z,26.2
2018-08-16T20:06:15.893Z,26.1
2018-08-16T20:09:15.630Z,26.0
2018-08-16T20:12:15.837Z,25.9
2018-08-16T20:15:15.077Z,25.9
2018-08-16T20:18:15.674Z,25.8
2018-08-16T20:21:14.978Z,25.6
2018-08-16T20:24:15.268Z,25.6
2018-08-16T20:27:15.622Z,25.5
2018-08-16T20:30:16.045Z,25.5
2018-08-16T20:33:15.368Z,25.5
2018-08-16T20:36:15.551Z,25.5
2018-08-16T20:39:15.717Z,25.5
2018-08-16T20:42:15.365Z,25.5
2018-08-16T20:45:15.150Z,25.4
2018-08-16T20:48:20.652Z,25.3
2018-08-16T20:51:15.926Z,25.2
2018-08-16T20:54:16.374Z,25.2
2018-08-16T20:57:15.455Z,25.2
2018-08-16T21:00:15.531Z,25.2
2018-08-16T21:03:15.767Z,25.0
2018-08-16T21:06:15.395Z,24.9
2018-08-16T21:09:15.748Z,24.9
2018-08-16T21:12:14.918Z,24.9
2018-08-16T21:15:15.056Z,24.8
2018-08-16T21:18:15.414Z,24.8
2018-08-16T21:21:15.614Z,24.8
2018-08-16T21:24:14.961Z,24.7
2018-08-16T21:27:15.254Z,24.7
2018-08-16T21:30:15.646Z,24.7
2018-08-16T21:33:15.067Z,24.6
2018-08-16T21:36:15.343Z,24.4
2018-08-16T21:39:15.454Z,24.4
2018-08-16T21:42:15.296Z,24.5
2018-08-16T21:45:15.578Z,24.5
2018-08-16T21:48:15.984Z,24.5
2018-08-16T21:51:15.311Z,24.5
2018-08-16T21:54:15.823Z,24.3
2018-08-16T21:57:15.045Z,24.2
2018-08-16T22:00:15.178Z,23.9
2018-08-16T22:03:15.883Z,24.0
2018-08-16T22:06:15.439Z,24.0
2018-08-16T22:09:15.268Z,24.1
2018-08-16T22:12:15.544Z,24.1
2018-08-16T22:15:15.652Z,24.1
2018-08-16T22:18:15.410Z,24.1
2018-08-16T22:21:15.778Z,24.0
2018-08-16T22:24:15.549Z,24.0
2018-08-16T22:27:16.059Z,23.9
2018-08-16T22:30:15.938Z,23.8
2018-08-16T22:33:15.206Z,23.8
2018-08-16T22:36:15.637Z,23.8
2018-08-16T22:39:15.868Z,23.8
2018-08-16T22:42:15.124Z,23.8
2018-08-16T22:45:15.287Z,23.8
2018-08-16T22:48:15.544Z,23.7
2018-08-16T22:51:15.767Z,23.5
2018-08-16T22:54:15.047Z,23.4
2018-08-16T22:57:15.706Z,23.4
2018-08-16T23:00:15.211Z,23.4
2018-08-16T23:03:15.863Z,23.4
2018-08-16T23:06:15.029Z,23.4
2018-08-16T23:09:15.878Z,23.4
2018-08-16T23:12:14.983Z,23.3
2018-08-16T23:15:15.167Z,23.2
2018-08-16T23:18:15.353Z,23.2
2018-08-16T23:21:15.535Z,23.1
2018-08-16T23:24:15.827Z,23.0
2018-08-16T23:27:14.932Z,22.8
2018-08-16T23:30:14.994Z,22.8
2018-08-16T23:33:15.241Z,22.7
2018-08-16T23:36:15.429Z,22.6
2018-08-16T23:39:15.670Z,22.8
2018-08-16T23:42:15.770Z,22.9
2018-08-16T23:45:15.021Z,22.9
2018-08-16T23:48:15.181Z,22.8
2018-08-16T23:51:15.665Z,22.8
2018-08-16T23:54:14.979Z,22.7
2018-08-16T23:57:15.191Z,22.6
